Time;durP1;ratioP1;P1;durP2;ratioP2;P2;SDS_P1;SDS_P2;PMS_P1;PMS_P2;Temp;Humidity;BMP_temperature;BMP_pressure;BME280_temperature;BME280_humidity;BME280_pressure;Samples;Min_cycle;Max_cycle;Signal;HPM_P1;HPM_P2
2023/06/03 00:01:43;;;;;;;;;22.80;22.20;;;;;18.64;61.67;99001.63;5017132;28;8885;-76
2023/06/03 00:04:14;;;;;;;;;29.20;26.60;;;;;18.67;61.17;98994.31;5067593;28;8931;-76
2023/06/03 00:06:43;;;;;;;;;28.40;25.80;;;;;18.80;61.05;98998.88;5005193;28;8861;-76
2023/06/03 00:09:12;;;;;;;;;29.40;27.00;;;;;18.67;60.91;99002.28;4996072;28;8860;-76
2023/06/03 00:11:41;;;;;;;;;25.80;23.20;;;;;18.68;61.22;98995.16;5044602;28;8821;-78
2023/06/03 00:14:10;;;;;;;;;30.60;27.60;;;;;18.50;61.31;98991.88;5045277;28;8931;-77
2023/06/03 00:16:42;;;;;;;;;27.20;26.20;;;;;18.05;62.75;99002.56;5045316;28;9606;-76
2023/06/03 00:19:14;;;;;;;;;28.80;28.60;;;;;18.16;62.98;98996.63;5044817;28;8938;-77
2023/06/03 00:21:45;;;;;;;;;26.60;25.60;;;;;18.38;61.88;98995.28;5045119;28;8892;-77
2023/06/03 00:24:14;;;;;;;;;24.80;21.80;;;;;18.19;62.25;98999.06;5044849;28;8885;-76
2023/06/03 00:26:43;;;;;;;;;27.00;26.00;;;;;18.26;61.79;98989.75;5040896;28;8859;-75
2023/06/03 00:29:12;;;;;;;;;31.20;29.00;;;;;18.48;61.08;98997.28;5008543;28;8859;-76
2023/06/03 00:31:42;;;;;;;;;26.40;26.40;;;;;18.71;60.84;98985.16;5034539;28;9618;-77
2023/06/03 00:34:11;;;;;;;;;24.40;24.40;;;;;18.85;60.05;98991.44;5044586;28;8998;-75
2023/06/03 00:36:42;;;;;;;;;24.60;23.60;;;;;18.93;60.58;98989.13;5044921;28;8857;-77
2023/06/03 00:39:11;;;;;;;;;29.00;26.60;;;;;19.09;60.05;98989.00;5028674;28;8853;-75
2023/06/03 00:41:40;;;;;;;;;27.20;26.60;;;;;19.15;58.94;98982.44;5010267;28;8918;-75
2023/06/03 00:44:09;;;;;;;;;26.80;26.20;;;;;19.10;58.69;98990.69;5065600;28;8938;-76
2023/06/03 00:46:38;;;;;;;;;25.60;25.60;;;;;18.84;58.68;98984.44;5086763;28;8879;-75
2023/06/03 00:49:08;;;;;;;;;22.00;19.80;;;;;18.27;60.22;98993.28;5087156;28;8848;-77
2023/06/03 00:51:38;;;;;;;;;23.80;22.80;;;;;18.38;60.20;98987.28;5087078;28;9644;-75
2023/06/03 00:54:06;;;;;;;;;26.00;23.60;;;;;18.03;61.68;98987.63;5086282;28;8852;-76
2023/06/03 00:56:43;;;;;;;;;20.20;19.40;;;;;18.30;60.08;98990.44;5085681;28;8839;-75
2023/06/03 00:59:14;;;;;;;;;22.20;20.20;;;;;18.15;60.55;98989.56;5086251;28;9583;-76
2023/06/03 01:01:44;;;;;;;;;22.80;21.40;;;;;18.25;59.82;98990.72;5073986;28;8860;-76
2023/06/03 01:04:18;;;;;;;;;19.40;18.40;;;;;18.41;59.56;98987.97;5082990;28;8876;-75
2023/06/03 01:07:00;;;;;;;;;21.20;20.20;;;;;18.64;59.20;98986.50;5066214;28;8928;-75
2023/06/03 01:09:40;;;;;;;;;20.20;19.20;;;;;18.80;59.01;98983.78;5067290;28;8859;-77
2023/06/03 01:12:16;;;;;;;;;24.20;23.60;;;;;18.94;58.70;98985.53;5082371;28;8876;-76
2023/06/03 01:14:54;;;;;;;;;27.80;27.60;;;;;19.04;58.06;98986.63;5051294;28;8828;-76
2023/06/03 01:17:27;;;;;;;;;26.40;24.20;;;;;19.17;58.27;98980.50;5085989;28;8844;-76
2023/06/03 01:20:00;;;;;;;;;20.60;20.00;;;;;19.28;58.15;98988.66;5087152;28;8868;-76
2023/06/03 01:22:36;;;;;;;;;27.00;25.40;;;;;19.09;57.85;98989.00;5087184;28;8870;-75
2023/06/03 01:25:08;;;;;;;;;22.80;22.80;;;;;19.18;57.95;98988.41;5084717;28;8922;-77
2023/06/03 01:27:37;;;;;;;;;24.80;24.80;;;;;19.06;58.26;98990.03;5100654;28;8883;-76
2023/06/03 01:30:09;;;;;;;;;26.80;26.80;;;;;19.17;57.99;98988.50;5086032;28;8934;-79
2023/06/03 01:32:40;;;;;;;;;25.20;21.80;;;;;19.07;57.96;98997.09;5090093;28;8876;-75
2023/06/03 01:35:11;;;;;;;;;24.80;24.80;;;;;19.04;57.74;98989.28;5090666;28;8990;-76
2023/06/03 01:37:41;;;;;;;;;25.20;23.00;;;;;18.85;58.38;98992.28;5069007;28;8852;-75
2023/06/03 01:40:13;;;;;;;;;21.00;20.60;;;;;18.92;57.53;98996.28;5084676;28;9605;-77
2023/06/03 01:42:43;;;;;;;;;21.40;20.00;;;;;19.08;57.78;98998.81;5084089;28;8849;-75
2023/06/03 01:45:12;;;;;;;;;20.80;20.60;;;;;19.23;57.79;98994.28;5068707;28;9661;-78
2023/06/03 01:47:41;;;;;;;;;22.80;22.00;;;;;19.33;57.97;98995.41;5085833;28;8855;-75
2023/06/03 01:50:10;;;;;;;;;22.20;22.20;;;;;19.44;57.65;98994.69;5087077;28;8944;-75
2023/06/03 01:52:40;;;;;;;;;24.60;23.40;;;;;19.47;57.66;98997.13;5085696;28;8844;-76
2023/06/03 01:55:08;;;;;;;;;24.60;23.80;;;;;19.42;57.51;98999.25;5084685;28;8860;-76
2023/06/03 01:57:39;;;;;;;;;28.40;27.40;;;;;19.43;57.71;98997.44;5096968;28;8867;-76
2023/06/03 02:00:09;;;;;;;;;26.80;26.80;;;;;19.42;58.01;99007.22;5068781;28;8855;-76
2023/06/03 02:02:47;;;;;;;;;29.20;28.20;;;;;19.48;58.05;99001.53;5087550;28;8840;-74
2023/06/03 02:05:16;;;;;;;;;27.00;26.80;;;;;19.45;57.75;99006.19;5089182;28;8978;-75
2023/06/03 02:07:46;;;;;;;;;27.60;25.40;;;;;19.50;57.97;99002.25;5089463;28;8879;-76
2023/06/03 02:10:14;;;;;;;;;26.20;25.40;;;;;19.59;58.08;99007.97;5087857;28;8848;-75
2023/06/03 02:12:45;;;;;;;;;25.20;23.80;;;;;19.39;57.07;99007.47;5083234;28;8858;-75
2023/06/03 02:15:18;;;;;;;;;25.40;24.20;;;;;19.38;57.43;99003.06;5054726;28;8894;-76
2023/06/03 02:17:48;;;;;;;;;21.80;21.80;;;;;19.36;56.88;99004.97;5089131;28;8839;-76
2023/06/03 02:20:17;;;;;;;;;28.20;27.40;;;;;19.44;57.05;99009.81;5088740;28;8852;-77
2023/06/03 02:22:46;;;;;;;;;23.40;22.40;;;;;19.46;57.07;99010.56;5087247;28;8853;-77
2023/06/03 02:25:15;;;;;;;;;24.20;23.60;;;;;19.53;56.55;99011.91;5003019;28;8846;-76
2023/06/03 02:27:45;;;;;;;;;22.00;22.00;;;;;19.60;56.95;99012.34;5037807;28;8851;-76
2023/06/03 02:30:15;;;;;;;;;30.00;26.20;;;;;19.66;56.73;99011.94;5070420;28;9001;-78
2023/06/03 02:32:44;;;;;;;;;25.80;23.80;;;;;19.67;56.86;99011.84;5070883;28;8864;-76
2023/06/03 02:35:13;;;;;;;;;30.40;27.40;;;;;19.73;56.83;99015.91;5086940;28;8874;-75
2023/06/03 02:37:42;;;;;;;;;27.60;25.60;;;;;19.77;56.92;99022.72;5087028;28;8849;-75
2023/06/03 02:40:11;;;;;;;;;23.80;19.40;;;;;19.78;56.57;99027.09;5020124;28;8866;-76
2023/06/03 02:42:40;;;;;;;;;26.20;25.40;;;;;19.83;56.58;99038.31;5070012;28;8897;-75
2023/06/03 02:45:12;;;;;;;;;26.40;22.40;;;;;19.88;56.55;99038.88;5070262;28;9044;-75
2023/06/03 02:47:41;;;;;;;;;18.40;18.40;;;;;19.95;56.71;99041.09;5069872;28;9607;-78
2023/06/03 02:50:10;;;;;;;;;30.20;25.20;;;;;19.94;56.40;99040.25;5070034;28;8850;-76
2023/06/03 02:52:40;;;;;;;;;26.60;25.00;;;;;20.00;56.10;99039.81;5070400;28;8932;-77
2023/06/03 02:55:09;;;;;;;;;28.80;26.80;;;;;19.97;55.91;99040.06;5069741;28;8856;-75
2023/06/03 02:57:38;;;;;;;;;28.40;26.20;;;;;19.97;56.55;99047.19;5068320;28;8988;-76
2023/06/03 03:00:11;;;;;;;;;24.20;24.20;;;;;19.96;56.43;99045.50;5073971;28;8989;-78
2023/06/03 03:02:42;;;;;;;;;28.20;26.60;;;;;19.98;56.80;99047.09;5089605;28;8867;-75
2023/06/03 03:05:11;;;;;;;;;25.60;25.60;;;;;19.98;56.62;99046.25;5070878;28;9601;-76
2023/06/03 03:07:40;;;;;;;;;32.60;30.20;;;;;20.00;56.40;99052.31;5089101;28;8840;-75
2023/06/03 03:10:10;;;;;;;;;27.40;23.60;;;;;20.00;56.01;99050.50;5087262;28;8847;-77
2023/06/03 03:12:39;;;;;;;;;27.60;27.00;;;;;20.01;56.28;99054.00;5051145;28;8930;-75
2023/06/03 03:15:10;;;;;;;;;27.20;24.80;;;;;20.00;56.24;99060.31;5067481;28;8858;-76
2023/06/03 03:17:39;;;;;;;;;30.20;29.00;;;;;20.00;56.07;99058.50;5070297;28;9593;-75
2023/06/03 03:20:12;;;;;;;;;25.80;25.00;;;;;20.06;55.90;99059.91;5096560;28;8880;-75
2023/06/03 03:22:45;;;;;;;;;23.20;22.80;;;;;20.05;56.32;99053.72;5039920;28;8971;-76
2023/06/03 03:25:17;;;;;;;;;58.00;47.00;;;;;20.07;55.60;99057.13;5086169;28;8977;-76
2023/06/03 03:27:46;;;;;;;;;55.00;44.25;;;;;20.07;56.39;99053.63;5084962;28;8872;-75
2023/06/03 03:30:15;;;;;;;;;33.80;31.80;;;;;20.07;55.46;99054.47;5088409;28;8848;-76
2023/06/03 03:32:46;;;;;;;;;28.80;27.00;;;;;20.07;55.54;99056.28;5087969;28;8848;-77
2023/06/03 03:35:21;;;;;;;;;28.60;26.80;;;;;19.99;55.74;99064.81;5087881;28;9018;-77
2023/06/03 03:38:02;;;;;;;;;26.80;26.80;;;;;20.08;56.04;99068.66;5087817;28;8836;-75
2023/06/03 03:40:33;;;;;;;;;27.80;27.00;;;;;19.97;56.03;99065.84;5085723;28;9656;-75
2023/06/03 03:43:03;;;;;;;;;27.40;27.00;;;;;19.93;55.84;99075.03;5086634;28;8868;-77
2023/06/03 03:45:35;;;;;;;;;34.80;33.00;;;;;19.95;55.62;99071.28;5087506;28;8847;-75
2023/06/03 03:48:07;;;;;;;;;42.00;35.25;;;;;19.96;56.07;99078.34;5070099;28;8882;-76
2023/06/03 03:50:43;;;;;;;;;32.00;30.20;;;;;19.98;55.64;99079.09;5087330;28;8948;-73
2023/06/03 03:53:15;;;;;;;;;49.50;41.25;;;;;19.96;55.32;99085.50;5087137;28;8852;-75
2023/06/03 03:55:47;;;;;;;;;31.40;30.60;;;;;19.99;55.27;99086.16;5035586;28;8851;-77
2023/06/03 03:58:26;;;;;;;;;36.75;32.50;;;;;19.66;55.47;99092.78;5081819;28;8843;-76
2023/06/03 04:01:00;;;;;;;;;31.60;29.20;;;;;18.98;57.16;99093.56;5023764;28;8964;-75
2023/06/03 04:03:35;;;;;;;;;34.00;32.00;;;;;18.65;58.17;99096.53;5086554;28;8867;-76
2023/06/03 04:06:08;;;;;;;;;36.50;34.00;;;;;18.34;59.37;99099.22;5087003;28;8848;-75
2023/06/03 04:08:39;;;;;;;;;35.25;33.00;;;;;18.20;59.97;99106.34;5087183;28;8836;-76
2023/06/03 04:11:09;;;;;;;;;33.80;32.60;;;;;18.33;60.11;99110.84;5082349;28;8908;-75
2023/06/03 04:13:40;;;;;;;;;79.33;69.00;;;;;18.69;59.29;99106.88;5068685;28;8946;-75
2023/06/03 04:16:11;;;;;;;;;36.25;34.00;;;;;18.93;58.22;99104.53;5066769;28;10145;-75
2023/06/03 04:18:42;;;;;;;;;38.75;34.25;;;;;19.12;58.45;99106.00;5066599;28;8847;-77
2023/06/03 04:21:15;;;;;;;;;34.20;32.60;;;;;19.34;58.59;99105.50;5086649;28;8828;-76
2023/06/03 04:23:45;;;;;;;;;45.00;39.00;;;;;19.48;57.75;99105.47;5086723;28;8856;-76
2023/06/03 04:26:16;;;;;;;;;38.25;34.25;;;;;19.63;57.04;99110.78;5084856;28;8857;-76
2023/06/03 04:28:46;;;;;;;;;33.00;31.00;;;;;19.70;55.90;99110.28;5086664;28;8845;-76
2023/06/03 04:31:16;;;;;;;;;37.60;34.60;;;;;19.64;55.90;99110.69;5086662;28;8942;-75
2023/06/03 04:33:45;;;;;;;;;38.40;32.40;;;;;19.73;55.93;99103.91;5052149;28;8888;-76
2023/06/03 04:36:16;;;;;;;;;35.25;33.00;;;;;19.79;56.06;99106.16;5087911;28;8873;-75
2023/06/03 04:38:45;;;;;;;;;42.00;35.00;;;;;19.76;55.43;99106.34;5086540;28;8844;-76
2023/06/03 04:41:15;;;;;;;;;34.80;31.80;;;;;19.86;55.47;99107.47;5081155;28;8850;-75
2023/06/03 04:43:45;;;;;;;;;34.00;32.40;;;;;20.00;55.75;99111.00;5085975;28;8864;-75
2023/06/03 04:46:16;;;;;;;;;35.80;31.40;;;;;20.08;55.99;99114.88;5086074;28;8820;-76
2023/06/03 04:48:48;;;;;;;;;36.40;32.40;;;;;19.91;54.27;99120.47;5086096;28;8847;-75
2023/06/03 04:51:18;;;;;;;;;38.75;34.50;;;;;18.82;57.63;99122.13;5085992;28;8840;-75
2023/06/03 04:53:47;;;;;;;;;36.50;33.50;;;;;18.26;59.94;99130.78;5019216;28;8856;-75
2023/06/03 04:56:16;;;;;;;;;44.25;35.50;;;;;18.11;60.81;99123.69;5064850;28;8858;-77
2023/06/03 04:58:46;;;;;;;;;34.40;32.60;;;;;18.57;59.84;99117.41;5095477;28;8847;-77
2023/06/03 05:01:23;;;;;;;;;38.80;32.60;;;;;18.98;59.22;99111.38;5086077;28;8859;-75
2023/06/03 05:03:52;;;;;;;;;47.25;38.50;;;;;19.00;58.20;99112.13;5086158;28;8844;-76
2023/06/03 05:06:23;;;;;;;;;38.00;33.80;;;;;19.10;58.02;99116.78;5087395;28;8970;-76
2023/06/03 05:08:53;;;;;;;;;36.40;33.80;;;;;19.26;57.30;99119.31;5084835;28;9046;-75
2023/06/03 05:11:22;;;;;;;;;42.00;35.00;;;;;19.31;57.16;99117.22;5082354;28;8934;-73
2023/06/03 05:13:51;;;;;;;;;38.75;35.25;;;;;19.19;57.21;99127.81;5066383;28;8872;-77
2023/06/03 05:16:20;;;;;;;;;37.40;33.80;;;;;19.28;57.13;99121.91;5067779;28;8865;-75
2023/06/03 05:18:49;;;;;;;;;38.00;33.40;;;;;19.11;57.52;99115.81;5067178;28;8834;-75
2023/06/03 05:21:19;;;;;;;;;38.50;34.25;;;;;18.88;57.97;99124.41;5031661;28;8852;-75
2023/06/03 05:23:50;;;;;;;;;35.00;33.25;;;;;18.84;58.49;99122.91;5014935;28;8876;-74
2023/06/03 05:26:20;;;;;;;;;36.20;34.20;;;;;19.13;58.10;99129.91;5064304;28;8836;-77
2023/06/03 05:28:49;;;;;;;;;36.80;33.00;;;;;19.16;57.35;99128.00;5047102;28;9594;-75
2023/06/03 05:31:19;;;;;;;;;33.20;32.00;;;;;18.76;58.37;99131.31;5045945;28;8848;-76
2023/06/03 05:33:48;;;;;;;;;34.20;31.60;;;;;19.24;57.24;99136.38;5030928;28;8855;-75
2023/06/03 05:36:21;;;;;;;;;34.50;33.00;;;;;19.39;56.72;99145.22;4981883;28;8894;-77
2023/06/03 05:38:52;;;;;;;;;34.75;31.75;;;;;19.60;56.03;99138.50;5049862;28;8870;-76
2023/06/03 05:41:21;;;;;;;;;32.00;31.60;;;;;19.79;55.18;99138.16;5047455;28;8903;-75
2023/06/03 05:43:50;;;;;;;;;34.60;33.20;;;;;20.09;55.24;99145.09;5030998;28;8852;-77
2023/06/03 05:46:19;;;;;;;;;33.50;30.75;;;;;19.26;56.77;99143.31;5041277;28;8855;-75
2023/06/03 05:48:48;;;;;;;;;39.75;35.50;;;;;18.95;57.64;99149.72;5067678;28;8952;-75
2023/06/03 05:51:18;;;;;;;;;43.00;37.50;;;;;19.27;57.82;99153.03;5067535;28;8910;-74
2023/06/03 05:53:47;;;;;;;;;35.60;32.80;;;;;19.59;57.10;99149.25;5072233;28;8834;-75
2023/06/03 05:56:21;;;;;;;;;33.40;31.80;;;;;19.96;55.71;99155.72;5040308;28;8970;-74
2023/06/03 05:58:50;;;;;;;;;42.25;35.00;;;;;20.26;55.22;99152.84;5090172;28;8927;-72
2023/06/03 06:01:19;;;;;;;;;33.00;31.00;;;;;20.46;54.32;99153.28;5082054;28;8866;-74
2023/06/03 06:03:50;;;;;;;;;39.80;34.20;;;;;20.51;54.94;99155.66;5078420;28;9685;-73
2023/06/03 06:06:19;;;;;;;;;36.00;33.25;;;;;20.77;55.40;99157.38;5088395;28;8867;-74
2023/06/03 06:08:48;;;;;;;;;38.25;34.00;;;;;21.11;54.27;99162.22;5067688;28;8896;-77
2023/06/03 06:11:18;;;;;;;;;35.00;33.25;;;;;21.26;52.94;99171.81;5082659;28;8858;-76
2023/06/03 06:13:48;;;;;;;;;33.60;31.00;;;;;21.50;53.81;99170.97;5069880;28;8904;-74
2023/06/03 06:16:17;;;;;;;;;34.50;32.25;;;;;21.70;52.27;99167.75;5055720;28;8870;-74
2023/06/03 06:18:46;;;;;;;;;30.60;29.80;;;;;21.55;50.76;99169.69;5058511;28;8858;-75
2023/06/03 06:21:16;;;;;;;;;32.20;30.20;;;;;20.31;52.94;99173.88;5051266;28;8854;-75
2023/06/03 06:23:46;;;;;;;;;32.80;30.00;;;;;20.33;53.82;99173.78;5032147;28;8870;-76
2023/06/03 06:26:16;;;;;;;;;32.60;30.60;;;;;20.24;52.81;99173.44;5091389;28;8947;-74
2023/06/03 06:28:46;;;;;;;;;23.20;23.20;;;;;19.49;55.25;99164.97;5085976;28;8843;-78
2023/06/03 06:31:19;;;;;;;;;32.20;28.00;;;;;19.60;55.55;99177.66;5086573;28;8860;-76
2023/06/03 06:33:52;;;;;;;;;31.20;26.00;;;;;20.16;53.83;99181.09;5088062;28;10097;-78
2023/06/03 06:36:30;;;;;;;;;28.40;28.20;;;;;20.67;53.05;99177.66;5037756;28;8874;-75
2023/06/03 06:39:03;;;;;;;;;32.40;30.40;;;;;20.78;51.88;99179.59;5081915;28;8926;-76
2023/06/03 06:41:38;;;;;;;;;27.20;26.80;;;;;20.65;52.78;99174.25;5075432;28;8940;-76
2023/06/03 06:44:13;;;;;;;;;30.00;28.60;;;;;21.20;52.28;99178.44;5087487;28;8886;-74
2023/06/03 06:46:44;;;;;;;;;28.40;26.60;;;;;21.58;51.37;99179.31;5081087;28;8852;-75
2023/06/03 06:49:13;;;;;;;;;26.20;23.40;;;;;20.93;51.67;99191.91;5087463;28;8840;-75
2023/06/03 06:51:43;;;;;;;;;27.00;27.00;;;;;21.52;51.26;99182.41;5092006;28;9100;-75
2023/06/03 06:54:14;;;;;;;;;32.20;30.60;;;;;20.68;53.06;99190.06;5070622;28;8963;-77
2023/06/03 06:56:43;;;;;;;;;32.40;29.60;;;;;20.46;54.79;99185.31;5083913;28;8879;-77
2023/06/03 06:59:13;;;;;;;;;36.75;32.50;;;;;20.74;53.99;99191.47;5053379;28;8856;-73
2023/06/03 07:01:41;;;;;;;;;33.00;30.50;;;;;19.80;56.85;99201.22;5077493;28;8846;-75
2023/06/03 07:04:12;;;;;;;;;32.80;31.40;;;;;20.05;56.92;99197.78;5079672;28;8844;-75
2023/06/03 07:06:41;;;;;;;;;38.00;32.75;;;;;19.47;57.74;99206.88;5075103;28;8860;-76
2023/06/03 07:09:10;;;;;;;;;40.25;34.25;;;;;19.25;59.30;99204.69;5070073;28;8851;-75
2023/06/03 07:11:44;;;;;;;;;37.75;34.25;;;;;19.69;57.82;99201.91;5087063;28;9002;-76
2023/06/03 07:14:15;;;;;;;;;40.00;35.00;;;;;19.09;59.58;99218.13;5086428;28;8864;-74
2023/06/03 07:16:46;;;;;;;;;43.50;37.00;;;;;18.96;60.00;99214.50;5085666;28;8859;-76
2023/06/03 07:19:17;;;;;;;;;41.50;36.25;;;;;19.36;59.01;99220.00;5068415;28;9627;-75
2023/06/03 07:21:49;;;;;;;;;44.00;36.50;;;;;19.38;59.80;99218.97;5096680;28;8990;-74
2023/06/03 07:24:18;;;;;;;;;45.75;37.00;;;;;19.12;61.22;99210.78;5036398;28;9542;-76
2023/06/03 07:26:50;;;;;;;;;41.25;36.00;;;;;19.30;59.38;99210.59;5086516;28;8867;-76
2023/06/03 07:29:19;;;;;;;;;45.00;39.00;;;;;18.77;61.93;99222.72;5051033;28;8889;-76
2023/06/03 07:31:49;;;;;;;;;46.50;38.75;;;;;19.56;59.62;99216.97;5068666;28;8871;-75
2023/06/03 07:34:23;;;;;;;;;37.00;33.20;;;;;19.92;58.25;99222.72;5086833;28;8856;-77
2023/06/03 07:36:58;;;;;;;;;41.00;35.20;;;;;20.27;57.09;99223.09;5086818;28;9727;-76
2023/06/03 07:39:32;;;;;;;;;35.80;33.20;;;;;19.89;57.03;99223.75;5087179;28;8986;-75
2023/06/03 07:42:11;;;;;;;;;34.40;31.20;;;;;19.44;57.65;99229.25;5086974;28;8940;-74
2023/06/03 07:44:49;;;;;;;;;39.20;32.40;;;;;18.93;58.89;99236.81;5086932;28;8860;-75
2023/06/03 07:47:18;;;;;;;;;43.40;36.80;;;;;18.89;60.06;99238.84;5087139;28;8876;-76
2023/06/03 07:49:50;;;;;;;;;37.60;34.00;;;;;19.02;59.63;99238.09;5069134;28;8856;-75
2023/06/03 07:52:21;;;;;;;;;40.80;34.60;;;;;19.22;58.51;99232.41;5088311;28;9628;-76
2023/06/03 07:54:51;;;;;;;;;36.60;33.60;;;;;19.46;58.16;99232.69;5088505;28;8848;-75
2023/06/03 07:57:20;;;;;;;;;37.80;34.60;;;;;19.58;57.84;99243.56;5087936;28;8867;-76
2023/06/03 07:59:52;;;;;;;;;42.75;36.50;;;;;19.22;58.90;99239.53;5087289;28;8863;-78
2023/06/03 08:02:21;;;;;;;;;43.75;38.00;;;;;19.15;60.12;99248.84;5084353;28;8837;-75
2023/06/03 08:05:00;;;;;;;;;41.80;36.00;;;;;19.77;58.36;99245.91;5088292;28;8859;-78
2023/06/03 08:07:29;;;;;;;;;37.40;33.60;;;;;20.41;56.90;99247.06;5083181;28;8878;-75
2023/06/03 08:09:59;;;;;;;;;42.00;36.60;;;;;20.99;55.22;99244.94;5083405;28;8872;-75
2023/06/03 08:12:34;;;;;;;;;36.60;33.80;;;;;21.31;53.47;99257.00;5067738;28;8973;-76
2023/06/03 08:15:03;;;;;;;;;47.25;38.75;;;;;20.76;54.24;99257.16;5066089;28;9596;-76
2023/06/03 08:17:40;;;;;;;;;43.25;37.50;;;;;19.51;57.98;99272.38;5086027;28;8841;-76
2023/06/03 08:20:12;;;;;;;;;43.00;37.50;;;;;19.45;58.74;99265.59;5086249;28;8872;-75
2023/06/03 08:22:43;;;;;;;;;35.80;33.40;;;;;19.28;59.19;99271.97;5077937;28;8851;-75
2023/06/03 08:25:12;;;;;;;;;41.75;36.75;;;;;19.26;59.43;99270.38;5087960;28;8852;-76
2023/06/03 08:27:42;;;;;;;;;44.00;36.75;;;;;18.78;61.32;99273.22;5080945;28;8862;-76
2023/06/03 08:30:13;;;;;;;;;38.20;34.60;;;;;19.63;59.15;99270.75;5068206;28;8850;-77
2023/06/03 08:32:44;;;;;;;;;39.40;34.20;;;;;20.55;56.77;99277.31;5086130;28;8853;-76
2023/06/03 08:35:17;;;;;;;;;37.60;33.60;;;;;21.27;54.78;99277.75;5085536;28;9004;-76
2023/06/03 08:37:46;;;;;;;;;45.75;39.50;;;;;20.36;55.68;99283.88;5089247;28;8837;-75
2023/06/03 08:40:16;;;;;;;;;45.25;39.25;;;;;19.63;58.04;99279.63;5090178;28;8867;-76
2023/06/03 08:42:46;;;;;;;;;44.75;38.75;;;;;19.25;59.49;99280.19;5087001;28;8964;-78
2023/06/03 08:45:16;;;;;;;;;40.50;36.25;;;;;18.99;60.45;99280.88;5064041;28;8910;-77
2023/06/03 08:48:00;;;;;;;;;48.25;39.75;;;;;19.05;59.99;99281.38;5079300;28;8916;-75
2023/06/03 08:50:33;;;;;;;;;45.75;38.75;;;;;19.03;59.98;99280.63;5074418;28;9735;-77
2023/06/03 08:53:08;;;;;;;;;42.00;36.25;;;;;19.43;59.20;99294.16;5072764;28;8864;-76
2023/06/03 08:55:38;;;;;;;;;47.75;38.00;;;;;19.49;58.89;99285.78;5085704;28;8856;-76
2023/06/03 08:58:12;;;;;;;;;42.60;37.60;;;;;19.59;59.01;99286.09;5084614;28;8887;-76
2023/06/03 09:00:44;;;;;;;;;41.75;36.50;;;;;20.17;57.49;99292.19;5087301;28;8881;-76
2023/06/03 09:03:13;;;;;;;;;39.60;35.40;;;;;20.90;55.49;99290.97;5077638;28;8855;-78
2023/06/03 09:05:45;;;;;;;;;38.50;33.50;;;;;20.52;54.91;99288.19;5054844;28;8865;-77
2023/06/03 09:08:15;;;;;;;;;36.00;33.50;;;;;20.17;57.19;99302.03;5076822;28;8838;-76
2023/06/03 09:10:46;;;;;;;;;44.80;37.60;;;;;20.68;54.50;99300.41;5066354;28;8847;-80
2023/06/03 09:13:17;;;;;;;;;42.00;36.75;;;;;20.15;56.71;99299.44;5050242;28;8866;-80
2023/06/03 09:15:47;;;;;;;;;44.75;39.25;;;;;19.94;56.87;99299.03;5086875;28;8896;-78
2023/06/03 09:18:16;;;;;;;;;37.60;34.40;;;;;19.74;56.26;99300.28;5087061;28;8859;-78
2023/06/03 09:20:46;;;;;;;;;41.00;37.00;;;;;19.96;56.84;99301.59;5090911;28;8882;-78
2023/06/03 09:23:16;;;;;;;;;35.80;33.00;;;;;20.87;55.33;99301.84;5072300;28;8843;-79
2023/06/03 09:25:46;;;;;;;;;32.60;31.00;;;;;21.44;53.13;99304.16;5081777;28;9556;-78
2023/06/03 09:28:15;;;;;;;;;35.20;32.00;;;;;21.03;53.56;99301.69;5086600;28;8878;-78
2023/06/03 09:30:46;;;;;;;;;37.60;33.60;;;;;20.38;55.20;99315.81;5088526;28;8847;-78
2023/06/03 09:33:16;;;;;;;;;29.80;29.00;;;;;21.18;53.41;99307.78;5089112;28;8963;-76
2023/06/03 09:36:06;;;;;;;;;34.60;32.20;;;;;20.75;53.84;99316.06;5085898;28;8855;-77
2023/06/03 09:38:51;;;;;;;;;32.40;30.60;;;;;20.70;53.82;99312.81;5067716;28;8859;-80
2023/06/03 09:41:22;;;;;;;;;35.20;32.00;;;;;20.55;53.92;99314.69;5086181;28;8878;-80
2023/06/03 09:43:55;;;;;;;;;42.00;36.00;;;;;19.70;57.72;99315.59;5086570;28;8855;-79
2023/06/03 09:46:26;;;;;;;;;35.00;33.00;;;;;19.39;58.12;99310.47;5076784;28;8871;-79
2023/06/03 09:49:07;;;;;;;;;40.80;36.20;;;;;19.48;58.01;99310.75;5070387;28;8961;-78
2023/06/03 09:51:42;;;;;;;;;42.80;35.00;;;;;19.31;57.49;99313.59;5087493;28;8936;-78
2023/06/03 09:54:12;;;;;;;;;37.60;33.80;;;;;19.28;58.08;99306.63;5071628;28;8882;-79
2023/06/03 09:56:42;;;;;;;;;36.00;33.40;;;;;19.12;59.17;99306.72;5078126;28;8964;-80
2023/06/03 09:59:16;;;;;;;;;32.00;30.20;;;;;19.32;59.29;99301.97;5065212;28;8962;-78
2023/06/03 10:01:47;;;;;;;;;36.40;32.80;;;;;19.21;58.91;99302.63;5088822;28;8843;-78
2023/06/03 10:04:20;;;;;;;;;32.80;31.40;;;;;19.31;59.09;99303.78;5063442;28;8917;-77
2023/06/03 10:07:08;;;;;;;;;40.40;33.40;;;;;19.74;58.00;99296.75;5078630;28;8862;-78
2023/06/03 10:09:37;;;;;;;;;36.40;32.20;;;;;20.00;56.71;99305.78;5069825;28;8838;-80
2023/06/03 10:12:10;;;;;;;;;31.20;30.20;;;;;20.07;55.75;99304.44;5082519;28;8877;-74
2023/06/03 10:14:45;;;;;;;;;31.00;29.20;;;;;20.26;55.24;99304.13;5053629;28;8875;-78
2023/06/03 10:17:16;;;;;;;;;29.60;29.60;;;;;20.34;54.68;99295.63;5086683;28;8841;-75
2023/06/03 10:19:46;;;;;;;;;30.60;28.60;;;;;21.10;54.22;99289.63;5081122;28;8984;-75
2023/06/03 10:22:18;;;;;;;;;36.40;33.80;;;;;20.85;53.78;99298.44;5070743;28;8865;-77
2023/06/03 10:24:48;;;;;;;;;33.20;31.20;;;;;21.34;52.50;99308.44;5086330;28;8853;-75
2023/06/03 10:27:18;;;;;;;;;33.20;31.00;;;;;20.75;53.83;99303.53;5067958;28;8904;-77
2023/06/03 10:29:52;;;;;;;;;27.40;26.80;;;;;20.87;54.04;99313.38;5084015;28;8873;-76
2023/06/03 10:32:22;;;;;;;;;27.40;26.20;;;;;21.68;52.27;99300.75;5086178;28;8868;-78
2023/06/03 10:34:52;;;;;;;;;28.20;28.20;;;;;21.83;50.59;99294.31;5085909;28;8874;-78
2023/06/03 10:37:25;;;;;;;;;28.40;28.40;;;;;20.71;53.03;99298.50;5066025;28;8887;-77
2023/06/03 10:39:55;;;;;;;;;34.60;31.60;;;;;20.62;53.58;99291.97;5086085;28;8877;-78
2023/06/03 10:42:24;;;;;;;;;28.80;26.80;;;;;20.97;51.54;99302.97;5086008;28;8858;-76
2023/06/03 10:44:53;;;;;;;;;30.20;28.80;;;;;20.63;52.86;99299.00;5086419;28;9650;-77
2023/06/03 10:47:26;;;;;;;;;22.60;22.60;;;;;21.49;51.28;99301.19;5086196;28;8865;-79
2023/06/03 10:50:05;;;;;;;;;24.20;21.60;;;;;22.11;50.06;99303.00;5086492;28;8862;-73
2023/06/03 10:52:59;;;;;;;;;30.80;30.20;;;;;22.15;48.54;99301.81;5085955;28;8838;-72
2023/06/03 10:55:37;;;;;;;;;28.40;28.00;;;;;22.34;48.17;99303.19;5079205;28;10115;-75
2023/06/03 10:58:11;;;;;;;;;27.60;27.60;;;;;22.17;48.03;99296.34;5069767;28;9001;-72
2023/06/03 11:00:57;;;;;;;;;31.00;29.80;;;;;22.02;49.50;99291.16;5075134;28;8948;-71
2023/06/03 11:03:27;;;;;;;;;31.20;28.80;;;;;21.52;49.86;99297.41;5080077;28;8827;-70
2023/06/03 11:06:40;;;;;;;;;25.00;24.40;;;;;21.08;51.41;99283.53;5089179;28;8962;-77
2023/06/03 11:09:16;;;;;;;;;30.00;29.00;;;;;20.70;52.77;99294.13;5073737;28;8855;-77
2023/06/03 11:11:58;;;;;;;;;29.60;27.40;;;;;20.25;53.71;99287.22;5079473;28;8865;-66
2023/06/03 11:14:55;;;;;;;;;29.80;28.60;;;;;20.52;52.83;99277.50;5086258;28;9020;-71
2023/06/03 11:17:26;;;;;;;;;25.20;24.00;;;;;20.55;52.78;99271.97;5026229;28;9008;-71
2023/06/03 11:19:59;;;;;;;;;30.20;29.40;;;;;21.13;51.57;99267.19;5010131;28;8826;-73
2023/06/03 11:22:45;;;;;;;;;27.20;27.20;;;;;20.91;52.06;99276.63;5005937;28;8877;-74
2023/06/03 11:25:29;;;;;;;;;28.60;26.40;;;;;21.63;50.67;99268.13;5020829;28;8879;-77
2023/06/03 11:28:34;;;;;;;;;24.00;22.40;;;;;22.67;48.08;99254.22;4998045;28;9767;-77
2023/06/03 11:31:08;;;;;;;;;18.00;18.00;;;;;22.32;47.93;99270.31;5006027;28;8858;-78
2023/06/03 11:33:37;;;;;;;;;24.60;22.40;;;;;22.85;47.26;99267.22;5005560;28;8866;-77
2023/06/03 11:36:46;;;;;;;;;23.60;23.20;;;;;23.60;44.76;99255.16;4972595;28;8893;-77
2023/06/03 11:39:15;;;;;;;;;22.80;21.60;;;;;23.49;43.97;99258.69;5015007;28;8948;-76
2023/06/03 11:42:08;;;;;;;;;20.60;19.60;;;;;22.76;45.44;99276.81;5024215;28;8845;-74
2023/06/03 11:44:39;;;;;;;;;25.40;24.00;;;;;21.64;48.22;99276.03;5025965;28;8853;-75
2023/06/03 11:47:08;;;;;;;;;19.00;18.20;;;;;21.83;47.48;99270.22;5025658;28;8872;-74